createdAt,value
2018-08-07T04:54:57.923Z,1.50
2018-08-07T04:57:25.496Z,2.10
2018-08-07T04:59:53.099Z,1.63
2018-08-07T05:02:21.106Z,1.50
2018-08-07T05:04:48.656Z,1.47
2018-08-07T05:07:16.353Z,2.00
2018-08-07T05:09:43.919Z,1.80
2018-08-07T05:12:11.518Z,1.40
2018-08-07T05:14:39.120Z,1.60
2018-08-07T05:17:06.883Z,1.67
2018-08-07T05:19:34.470Z,2.67
2018-08-07T05:22:02.306Z,1.50
2018-08-07T05:24:29.924Z,1.70
2018-08-07T05:26:57.553Z,2.10
2018-08-07T05:29:25.192Z,2.03
2018-08-07T05:31:52.771Z,1.40
2018-08-07T05:34:20.457Z,2.50
2018-08-07T05:36:48.166Z,1.73
2018-08-07T05:39:15.726Z,1.60
2018-08-07T05:41:43.339Z,1.20
2018-08-07T05:44:10.996Z,2.13
2018-08-07T05:46:38.599Z,1.93
2018-08-07T05:49:06.167Z,1.73
2018-08-07T05:51:33.926Z,1.60
2018-08-07T05:54:01.501Z,1.77
2018-08-07T05:56:29.210Z,1.57
2018-08-07T05:58:56.844Z,1.90
2018-08-07T06:01:24.470Z,1.30
2018-08-07T06:03:52.080Z,1.67
2018-08-07T06:06:19.672Z,1.70
2018-08-07T06:08:47.318Z,2.07
2018-08-07T06:11:14.918Z,1.27
2018-08-07T06:13:42.524Z,1.70
2018-08-07T06:16:10.092Z,1.53
2018-08-07T06:18:37.692Z,2.30
2018-08-07T06:21:05.541Z,1.50
2018-08-07T06:23:33.234Z,1.77
2018-08-07T06:26:00.807Z,1.90
2018-08-07T06:28:28.510Z,1.67
2018-08-07T06:30:56.673Z,2.27
2018-08-07T06:33:24.295Z,1.80
2018-08-07T06:35:51.981Z,1.53
2018-08-07T06:38:19.525Z,1.50
2018-08-07T06:40:47.125Z,1.90
2018-08-07T06:43:14.726Z,1.90
2018-08-07T06:45:42.366Z,1.70
2018-08-07T06:48:10.079Z,1.43
2018-08-07T06:50:37.698Z,1.60
2018-08-07T06:53:06.050Z,3.10
2018-08-07T06:55:33.654Z,1.90
2018-08-07T06:58:01.322Z,1.33
2018-08-07T07:00:29.041Z,1.53
2018-08-07T07:02:56.634Z,1.30
2018-08-07T07:05:24.293Z,2.13
2018-08-07T07:07:51.860Z,1.73
2018-08-07T07:10:19.492Z,1.23
2018-08-07T07:12:47.400Z,1.20
2018-08-07T07:15:15.836Z,2.03
2018-08-07T07:17:44.890Z,2.00
2018-08-07T07:20:14.179Z,1.60
2018-08-07T07:22:43.289Z,1.67
2018-08-07T07:25:11.162Z,1.57
2018-08-07T07:27:39.341Z,1.00
2018-08-07T07:30:13.009Z,1.63
2018-08-07T07:32:41.013Z,1.90
2018-08-07T07:35:08.595Z,1.70
2018-08-07T07:37:36.193Z,1.70
2018-08-07T07:40:04.999Z,1.60
2018-08-07T07:42:32.558Z,1.57
2018-08-07T07:45:00.303Z,1.60
2018-08-07T07:47:27.945Z,1.43
2018-08-07T07:49:55.501Z,1.80
2018-08-07T07:52:23.080Z,1.37
2018-08-07T07:54:50.731Z,2.20
2018-08-07T07:57:18.384Z,1.97
2018-08-07T07:59:45.984Z,1.73
2018-08-07T08:02:13.557Z,2.00
2018-08-07T08:04:41.147Z,1.33
2018-08-07T08:07:08.855Z,1.87
2018-08-07T08:09:36.432Z,1.80
2018-08-07T08:12:04.096Z,1.73
2018-08-07T08:14:36.824Z,1.73
2018-08-07T08:17:04.930Z,1.30
2018-08-07T08:19:32.530Z,1.33
2018-08-07T08:22:00.116Z,1.67
2018-08-07T08:24:27.670Z,1.60
2018-08-07T08:26:55.286Z,1.47
2018-08-07T08:29:23.122Z,1.57
2018-08-07T08:31:50.476Z,1.20
2018-08-07T08:34:18.893Z,1.47
2018-08-07T08:36:46.459Z,1.27
2018-08-07T08:39:14.049Z,1.37
2018-08-07T08:41:41.901Z,1.50
2018-08-07T08:44:09.513Z,1.70
2018-08-07T08:46:37.578Z,1.43
2018-08-07T08:49:05.297Z,1.10
2018-08-07T08:51:32.909Z,1.03
2018-08-07T08:54:00.501Z,1.80
2018-08-07T08:56:28.123Z,1.70
2018-08-07T08:58:55.705Z,1.80
2018-08-07T09:01:23.289Z,1.83
2018-08-07T09:03:52.102Z,1.90
2018-08-07T09:06:19.965Z,1.50
2018-08-07T09:08:47.548Z,1.30
2018-08-07T09:11:15.042Z,1.40
2018-08-07T09:13:42.640Z,1.20
2018-08-07T09:16:10.207Z,1.50
2018-08-07T09:18:37.798Z,1.67
2018-08-07T09:21:05.342Z,1.37
2018-08-07T09:23:32.858Z,1.33
2018-08-07T09:26:00.471Z,1.10
2018-08-07T09:28:28.027Z,1.33
2018-08-07T09:30:55.642Z,1.20
2018-08-07T09:33:23.532Z,1.30
2018-08-07T09:35:51.172Z,1.17
2018-08-07T09:38:18.920Z,1.17
2018-08-07T09:40:46.524Z,1.10
2018-08-07T09:43:14.090Z,1.50
2018-08-07T09:45:41.762Z,1.40
2018-08-07T09:48:11.223Z,1.10
2018-08-07T09:50:38.946Z,1.80
2018-08-07T09:53:06.543Z,1.53
2018-08-07T09:55:34.439Z,1.23
2018-08-07T09:58:02.235Z,1.30
2018-08-07T10:00:35.696Z,1.00
2018-08-07T10:03:04.608Z,1.40
2018-08-07T10:05:33.229Z,1.57
2018-08-07T10:08:00.713Z,1.37
2018-08-07T10:10:29.177Z,1.20
2018-08-07T10:12:56.860Z,1.13
2018-08-07T10:15:24.589Z,1.43
2018-08-07T10:17:52.289Z,1.23
2018-08-07T10:20:19.920Z,1.33
2018-08-07T10:22:47.575Z,1.20
2018-08-07T10:25:17.121Z,1.20
2018-08-07T10:27:45.922Z,1.40
2018-08-07T10:30:16.672Z,1.60
2018-08-07T10:32:44.380Z,1.37
2018-08-07T10:35:12.603Z,1.27
2018-08-07T10:37:41.585Z,1.00
2018-08-07T10:40:11.939Z,1.03
2018-08-07T10:42:39.613Z,1.43
2018-08-07T10:45:10.974Z,1.37
2018-08-07T10:47:39.095Z,1.50
2018-08-07T10:50:14.670Z,1.60
2018-08-07T10:52:42.381Z,1.23
2018-08-07T10:55:10.126Z,1.20
2018-08-07T10:57:40.027Z,1.63
2018-08-07T11:00:14.001Z,1.60
2018-08-07T11:02:42.101Z,1.50
2018-08-07T11:05:10.114Z,1.40
2018-08-07T11:07:37.877Z,1.50
2018-08-07T11:10:07.864Z,1.63
2018-08-07T11:12:35.626Z,1.20
2018-08-07T11:15:04.358Z,1.57
2018-08-07T11:17:31.987Z,1.20
2018-08-07T11:19:59.609Z,1.17
2018-08-07T11:22:27.261Z,1.17
2018-08-07T11:24:55.355Z,1.20
2018-08-07T11:27:22.965Z,1.37
2018-08-07T11:29:50.629Z,1.30
2018-08-07T11:32:18.197Z,1.70
2018-08-07T11:34:45.809Z,1.50
2018-08-07T11:37:13.393Z,1.20
2018-08-07T11:39:41.006Z,1.33
2018-08-07T11:42:08.840Z,1.23
2018-08-07T11:44:36.509Z,1.63
2018-08-07T11:47:04.125Z,1.60
2018-08-07T11:49:31.708Z,1.40
2018-08-07T11:51:59.321Z,1.00
2018-08-07T11:57:01.635Z,1.60
2018-08-07T11:59:29.258Z,1.80
2018-08-07T12:01:57.103Z,1.50
2018-08-07T12:04:24.725Z,1.53
2018-08-07T12:06:53.074Z,1.30
2018-08-07T12:09:20.646Z,1.27
2018-08-07T12:11:48.224Z,1.30
2018-08-07T12:14:15.818Z,1.10
2018-08-07T12:16:44.122Z,1.60
2018-08-07T12:19:11.732Z,1.20
2018-08-07T12:21:39.375Z,1.13
2018-08-07T12:24:06.976Z,1.30
2018-08-07T12:26:34.628Z,1.50
2018-08-07T12:29:02.210Z,1.50
2018-08-07T12:31:29.803Z,1.30
2018-08-07T12:33:57.400Z,1.63
2018-08-07T12:36:24.985Z,1.57
2018-08-07T12:38:52.733Z,1.10
2018-08-07T12:41:20.366Z,1.13
2018-08-07T12:43:47.920Z,2.40
2018-08-07T12:46:15.545Z,1.30
2018-08-07T12:48:43.137Z,1.77
2018-08-07T12:51:10.743Z,1.30
2018-08-07T12:53:38.394Z,1.07
2018-08-07T12:56:06.211Z,1.60
2018-08-07T12:58:33.881Z,1.00
2018-08-07T13:01:01.467Z,1.60
2018-08-07T13:03:29.410Z,1.13
2018-08-07T13:05:57.042Z,1.50
2018-08-07T13:08:24.658Z,1.50
2018-08-07T13:10:52.317Z,1.07
2018-08-07T13:13:19.928Z,1.23
2018-08-07T13:15:47.588Z,1.30
2018-08-07T13:18:15.198Z,1.60
2018-08-07T13:20:42.796Z,1.50
2018-08-07T13:23:10.404Z,1.40
2018-08-07T13:25:38.001Z,1.37
2018-08-07T13:39:56.925Z,1.70
2018-08-07T13:42:24.506Z,1.00
2018-08-07T13:44:52.116Z,1.57
2018-08-07T13:47:19.681Z,1.33
2018-08-07T13:49:47.282Z,1.40
2018-08-07T13:52:14.900Z,1.17
2018-08-07T13:54:42.545Z,1.10
2018-08-07T13:57:10.141Z,1.13
2018-08-07T13:59:37.789Z,1.40
2018-08-07T14:02:05.415Z,1.10
2018-08-07T14:04:33.043Z,1.20
2018-08-07T14:07:00.610Z,1.50
2018-08-07T14:09:28.171Z,1.17
2018-08-07T14:11:55.816Z,1.30
2018-08-07T14:14:23.442Z,1.30
2018-08-07T14:16:51.089Z,1.40
2018-08-07T14:19:18.739Z,1.57
2018-08-07T14:21:46.348Z,1.50
2018-08-07T14:24:14.237Z,1.57
2018-08-07T14:26:41.893Z,1.30
2018-08-07T14:29:09.598Z,1.20
2018-08-07T14:31:37.268Z,1.20
2018-08-07T14:34:04.893Z,1.50
2018-08-07T14:36:32.687Z,1.00
2018-08-07T14:39:00.237Z,1.27
2018-08-07T14:41:27.857Z,1.40
2018-08-07T14:43:55.449Z,1.30
2018-08-07T14:46:23.061Z,1.33
2018-08-07T14:48:50.706Z,1.10
2018-08-07T14:51:18.369Z,1.30
2018-08-07T14:53:45.949Z,1.60
2018-08-07T14:56:13.611Z,1.27
2018-08-07T14:58:41.301Z,1.17
2018-08-07T15:01:08.937Z,1.10
2018-08-07T15:03:36.579Z,1.63
2018-08-07T15:06:04.642Z,1.30
2018-08-07T15:08:32.269Z,1.57
2018-08-07T15:11:00.027Z,1.13
2018-08-07T15:13:27.643Z,1.33
2018-08-07T15:15:55.419Z,1.30
2018-08-07T15:18:23.039Z,1.60
2018-08-07T15:20:50.735Z,1.50
2018-08-07T15:23:18.326Z,1.30
2018-08-07T15:25:45.983Z,1.50
2018-08-07T15:28:13.637Z,1.17
2018-08-07T15:30:41.284Z,1.30
2018-08-07T15:33:09.214Z,1.10
2018-08-07T15:35:37.463Z,1.27
2018-08-07T15:38:05.129Z,1.20
2018-08-07T15:40:32.714Z,1.23
2018-08-07T15:43:00.295Z,1.27
2018-08-07T15:45:27.999Z,1.50
2018-08-07T15:47:55.820Z,1.00
2018-08-07T15:50:23.566Z,1.63
2018-08-07T15:52:52.604Z,1.33
2018-08-07T15:55:22.576Z,1.40
2018-08-07T15:57:50.340Z,1.13
2018-08-07T16:00:24.784Z,1.10
2018-08-07T16:02:52.736Z,1.27
2018-08-07T16:05:21.085Z,1.40
2018-08-07T16:07:50.037Z,1.20
2018-08-07T16:10:18.481Z,1.50
2018-08-07T16:12:47.334Z,3.37
2018-08-07T16:15:15.226Z,2.73
2018-08-07T16:17:43.958Z,2.00
2018-08-07T16:20:11.574Z,1.30
2018-08-07T16:22:39.944Z,1.30
2018-08-07T16:25:09.338Z,1.40
2018-08-07T16:27:37.506Z,1.53
2018-08-07T16:30:10.296Z,1.60
2018-08-07T16:32:37.926Z,1.83
2018-08-07T16:35:05.740Z,1.50
2018-08-07T16:37:33.340Z,1.43
2018-08-07T16:40:01.562Z,1.20
2018-08-07T16:42:29.298Z,1.53
2018-08-07T16:44:57.581Z,1.53
2018-08-07T16:47:25.319Z,1.70
2018-08-07T16:49:53.108Z,1.20
2018-08-07T16:52:20.819Z,1.50
2018-08-07T16:54:48.650Z,1.30
2018-08-07T16:57:16.410Z,1.13
2018-08-07T16:59:44.338Z,1.73
2018-08-07T17:02:12.199Z,2.17
2018-08-07T17:04:39.807Z,1.57
2018-08-07T17:07:07.456Z,1.43
2018-08-07T17:09:35.222Z,1.57
2018-08-07T17:12:03.091Z,1.60
2018-08-07T17:14:30.873Z,1.67
2018-08-07T17:16:58.639Z,1.43
2018-08-07T17:19:26.551Z,1.43
2018-08-07T17:21:54.339Z,1.70
2018-08-07T17:24:22.047Z,1.73
2018-08-07T17:26:49.860Z,2.17
2018-08-07T17:29:17.738Z,3.07
2018-08-07T17:31:45.411Z,2.30
2018-08-07T17:34:13.049Z,2.27
2018-08-07T17:36:40.704Z,1.80
2018-08-07T17:39:08.441Z,1.43
2018-08-07T17:41:39.519Z,1.73
2018-08-07T17:44:07.363Z,2.00
2018-08-07T17:46:35.170Z,2.77
2018-08-07T17:49:02.943Z,3.03
2018-08-07T17:51:31.077Z,2.70
2018-08-07T17:53:58.931Z,1.50
2018-08-07T17:56:26.648Z,2.00
2018-08-07T17:58:54.441Z,2.93
2018-08-07T18:01:22.237Z,1.40
2018-08-07T18:03:50.083Z,3.00
2018-08-07T18:06:17.849Z,2.53
2018-08-07T18:08:45.843Z,2.30
2018-08-07T18:11:13.544Z,2.30
2018-08-07T18:13:41.524Z,2.43
2018-08-07T18:16:09.321Z,2.77
2018-08-07T18:18:37.116Z,2.60
2018-08-07T18:21:04.793Z,2.80
2018-08-07T18:23:32.622Z,2.73
2018-08-07T18:26:00.424Z,3.10
2018-08-07T18:28:28.224Z,2.63
2018-08-07T18:30:56.066Z,2.40
2018-08-07T18:33:23.959Z,2.43
2018-08-07T18:35:51.802Z,2.50
2018-08-07T18:38:19.713Z,2.50
2018-08-07T18:40:47.510Z,2.70
2018-08-07T18:43:15.487Z,3.00
2018-08-07T18:45:43.365Z,3.07
2018-08-07T18:48:11.271Z,4.10
2018-08-07T18:50:39.172Z,2.80
2018-08-07T18:53:06.991Z,2.90
2018-08-07T18:55:34.766Z,3.30
2018-08-07T18:58:02.815Z,3.50
2018-08-07T19:00:30.821Z,3.20
2018-08-07T19:02:58.579Z,3.13
2018-08-07T19:05:26.275Z,2.93
2018-08-07T19:07:53.934Z,2.73
2018-08-07T19:10:22.114Z,2.30
2018-08-07T19:12:50.166Z,2.53
2018-08-07T19:15:19.223Z,3.17
2018-08-07T19:17:47.179Z,3.57
2018-08-07T19:20:17.788Z,4.13
2018-08-07T19:22:46.021Z,3.57
2018-08-07T19:25:13.947Z,2.90
2018-08-07T19:27:42.062Z,3.10
2018-08-07T19:30:12.930Z,4.63
2018-08-07T19:32:41.312Z,3.87
2018-08-07T19:35:10.553Z,4.33
2018-08-07T19:37:38.635Z,4.37
2018-08-07T19:40:12.550Z,4.00
2018-08-07T19:42:40.420Z,3.73
2018-08-07T19:45:09.418Z,4.33
2018-08-07T19:47:37.482Z,4.93
2018-08-07T19:50:07.456Z,4.87
2018-08-07T19:52:36.119Z,4.80
2018-08-07T19:55:05.239Z,4.80
2018-08-07T19:57:33.128Z,5.03
2018-08-07T20:00:01.008Z,4.73
2018-08-07T20:02:29.093Z,4.60
2018-08-07T20:04:57.101Z,4.47
2018-08-07T20:07:24.949Z,4.47
2018-08-07T20:09:52.775Z,4.77
2018-08-07T20:12:20.626Z,3.80
2018-08-07T20:14:48.429Z,3.80
2018-08-07T20:17:18.258Z,5.33
2018-08-07T20:19:46.282Z,3.83
2018-08-07T20:22:15.602Z,4.27
2018-08-07T20:24:43.414Z,4.23
2018-08-07T20:27:11.414Z,4.40
2018-08-07T20:29:39.146Z,4.60
2018-08-07T20:32:07.934Z,5.57
2018-08-07T20:34:35.721Z,5.17
2018-08-07T20:37:03.523Z,5.17
2018-08-07T20:39:31.285Z,4.47
2018-08-07T20:41:58.977Z,5.83
2018-08-07T20:44:26.764Z,4.90
2018-08-07T20:46:54.670Z,9.40
2018-08-07T20:49:22.356Z,5.40
2018-08-07T20:51:49.940Z,5.27
2018-08-07T20:54:17.711Z,4.97
2018-08-07T20:56:45.425Z,5.60
2018-08-07T20:59:13.226Z,6.10
2018-08-07T21:01:41.110Z,5.23
2018-08-07T21:04:08.859Z,5.33
2018-08-07T21:06:36.621Z,5.20
2018-08-07T21:09:07.497Z,5.53
2018-08-07T21:11:35.225Z,5.03
2018-08-07T21:14:03.165Z,6.27
2018-08-07T21:16:30.946Z,5.53
2018-08-07T21:18:58.554Z,5.43
2018-08-07T21:21:26.254Z,5.13
2018-08-07T21:23:53.942Z,5.20
2018-08-07T21:26:21.560Z,6.03
2018-08-07T21:28:49.210Z,5.17
2018-08-07T21:31:16.996Z,5.97
2018-08-07T21:33:44.842Z,5.97
2018-08-07T21:36:12.470Z,5.77
2018-08-07T21:38:40.181Z,5.50
2018-08-07T21:41:07.889Z,5.83
2018-08-07T21:43:35.539Z,5.87
2018-08-07T21:46:03.145Z,6.83
2018-08-07T21:48:30.803Z,6.30
2018-08-07T21:50:58.469Z,5.80
2018-08-07T21:53:26.122Z,6.50
2018-08-07T21:55:53.815Z,5.80
2018-08-07T21:58:21.514Z,5.90
2018-08-07T22:00:50.265Z,7.40
2018-08-07T22:03:18.157Z,9.00
2018-08-07T22:05:46.361Z,11.10
2018-08-07T22:08:14.897Z,9.93
2018-08-07T22:10:42.664Z,8.83
2018-08-07T22:13:10.389Z,9.57
2018-08-07T22:15:38.279Z,9.60
2018-08-07T22:18:08.220Z,8.00
2018-08-07T22:20:35.910Z,8.80
2018-08-07T22:23:03.683Z,7.70
2018-08-07T22:25:31.451Z,8.60
2018-08-07T22:27:59.119Z,7.63
2018-08-07T22:30:26.846Z,7.50
2018-08-07T22:32:54.517Z,11.87
2018-08-07T22:35:22.125Z,14.30
2018-08-07T22:37:50.005Z,11.63
2018-08-07T22:40:17.639Z,8.80
2018-08-07T22:42:45.285Z,9.20
2018-08-07T22:45:14.649Z,8.83
2018-08-07T22:47:42.592Z,9.23
2018-08-07T22:50:11.685Z,8.87
2018-08-07T22:52:39.861Z,9.53
2018-08-07T22:55:09.915Z,9.10
2018-08-07T22:57:37.486Z,11.80
2018-08-07T23:00:11.144Z,12.00
2018-08-07T23:02:38.700Z,12.83
2018-08-07T23:05:06.884Z,13.07
2018-08-07T23:07:34.486Z,11.80
2018-08-07T23:10:02.290Z,11.70
2018-08-07T23:12:29.877Z,11.10
2018-08-07T23:14:57.513Z,12.63
2018-08-07T23:17:25.333Z,10.47
2018-08-07T23:19:53.145Z,9.90
2018-08-07T23:22:20.831Z,8.23
2018-08-07T23:24:48.609Z,8.30
2018-08-07T23:27:16.289Z,7.43
2018-08-07T23:29:43.969Z,7.53
2018-08-07T23:32:11.655Z,6.90
2018-08-07T23:34:39.269Z,6.97
2018-08-07T23:37:06.981Z,8.07
2018-08-07T23:39:34.570Z,8.23
2018-08-07T23:42:02.299Z,8.27
2018-08-07T23:44:30.003Z,6.80
2018-08-07T23:46:57.705Z,6.47
2018-08-07T23:49:25.318Z,7.10
2018-08-07T23:51:53.047Z,6.77
2018-08-07T23:54:20.851Z,5.10
2018-08-07T23:56:48.586Z,6.30
2018-08-07T23:59:16.318Z,6.07
